Merced, CA

9:17 PM PDT en Septiembre 01, 2014 (GMT -0700)
Merced Municipal-Macready | Change Station
CLOSE
Current Station
Aeropuerto
Location: Merced,
Altura: 154 ft
Estaciones meteorológicas cercanas

Alt 154 ft 37.28 °N, 120.51 °W | Updated 24 minutes ago

Clear
Despejado
86 ° F
Sensación térmica 85 ° F
N
6
Viento Variable Viento desde Oeste

Hoy
Alta -- | Baja -- ° F
--% Posibilidad de precipitaciones
Ayer
Alta -- | Baja -- ° F
Precip. -- pul
6:32 AM 7:30 PM
Creciente, 47% visible
Presión 29.72 pul
Visibilidad 7.0 Millas
Nubes Despejado
Índice de calor 85 ° F
Punto de rocío 57 ° F
Humedad 37%
Precipitaciones 0.00 pul
Espesor de la nieve No disponible.
UV 0 de una escala de 12
Polen 9.20 de una escala de 12
Calidad del aire No disponible.
Flu Activity No disponible.
METAR KMCE 020353Z AUTO 27005KT 7SM CLR 30/14 A2972 RMK AO2 SLP062 T03000139

More Conditions Fewer Conditions

Presión 29.72 pul
Visibilidad 7.0 Millas
Nubes Despejado
Índice de calor 85 ° F
Punto de rocío 57 ° F
Humedad 37%
Precipitaciones 0.00 pul
Espesor de la nieve No disponible.
UV 0 de una escala de 12
Polen 9.20 de una escala de 12
Calidad del aire No disponible.
Flu Activity No disponible.
METAR KMCE 020353Z AUTO 27005KT 7SM CLR 30/14 A2972 RMK AO2 SLP062 T03000139

More Conditions Fewer Conditions

10-Day Weather Forecast

Almanac

Astronomía

Sep. 01, 2014 Salida Puesta
Hora real 6:32 AM PDT 7:30 PM PDT
Crepúsculo civil 6:05 AM PDT 7:57 PM PDT
Crepúsculo náutico 5:34 AM PDT 8:28 PM PDT
Crepúsculo astronómico 5:01 AM PDT 9:01 PM PDT
Luna 1:14 PM PDT (9/1) 11:45 PM PDT (9/1)
Horas de luz 13h 51m
Horas de luz
12h 57m
Tomorrow will be 2m 18s shorter.
Creciente, 47% of the Moon is Illuminated
Sep 2
Creciente
Sep 2
Cuarto creciente
Sep 8
Luna llena
Sep 15
Cuarto menguante
Sep 24
Nueva

Extremos de hoy

Máximos del estado Bajos del estado

Community

WunderPhotos

Upload Photos

1,749,560 ¡fotos cargadas!

WunderBlogs® & News

Nearby

Calidad del aire

  Calidad del aire Índice AQ Contaminante
Lunes Buena
OZONE
Martes Buena
OZONE
Miércoles Moderada
OZONE
Jueves Moderada
OZONE
Viernes Buena
OZONE
Sábado Buena
OZONE

Grosos de nieve

Estación Profundido Altura
Echo Peak 0 in 7800 ft
CSS Lab 1 in 6900 ft
Adin Mountain 1 in 6200 ft
Cedar Pass 0 in 7100 ft

Actividad de terremotos

Ciudad Distance Mag. Tiempo y dato
Yountville, California 126 Millas 2.6 1:15 PM PDT
2014-09-01
Gilroy, California 56 Millas 3.5 9:10 AM PDT
2014-09-01
Green Valley, California 112 Millas 2.5 6:37 AM PDT
2014-08-31
Napa, California 119 Millas 3.2 1:56 AM PDT
2014-08-31
Magnitud mínima muestra es 2,5.

Temperaturas de aguas costeras

Lugar Temperatura
Sin partes meteorológicos de las estaciones

Estaciones meteorológicas cercanas